Time;durP1;ratioP1;P1;durP2;ratioP2;P2;SDS_P1;SDS_P2;PMS_P1;PMS_P2;Temp;Humidity;BMP_temperature;BMP_pressure;BME280_temperature;BME280_humidity;BME280_pressure;Samples;Min_cycle;Max_cycle;Signal;HPM_P1;HPM_P2
2023/02/25 00:01:03;;;;;;;6.28;1.42;;;;;;;0.32;100.00;100513.69;4954206;29;20426;-96
2023/02/25 00:03:38;;;;;;;5.60;1.80;;;;;;;0.39;100.00;100512.75;4952655;29;20518;-96
2023/02/25 00:06:11;;;;;;;5.10;1.77;;;;;;;0.45;100.00;100536.38;4953108;29;20031;-96
2023/02/25 00:09:15;;;;;;;5.88;1.95;;;;;;;0.46;100.00;100510.94;4939435;29;20490;-96
2023/02/25 00:11:47;;;;;;;9.05;1.52;;;;;;;0.67;100.00;100545.34;4955560;29;20125;-96
2023/02/25 00:14:19;;;;;;;3.63;2.05;;;;;;;0.39;100.00;100501.75;4951293;28;20035;-96
2023/02/25 00:17:03;;;;;;;5.68;1.58;;;;;;;0.57;100.00;100526.03;4957004;29;20466;-95
2023/02/25 00:19:47;;;;;;;;;;;;;;;;;;;;;
2023/02/25 00:22:18;;;;;;;5.70;2.10;;;;;;;0.54;100.00;100536.25;4944768;29;20039;-96
2023/02/25 00:25:15;;;;;;;9.33;2.00;;;;;;;0.76;100.00;100527.44;4942788;29;20486;-96
2023/02/25 00:28:03;;;;;;;7.57;2.67;;;;;;;0.68;100.00;100514.00;4971977;28;20031;-96
2023/02/25 00:30:42;;;;;;;7.03;2.38;;;;;;;0.85;100.00;100542.53;4960480;28;20490;-96
2023/02/25 00:33:16;;;;;;;8.95;2.13;;;;;;;0.71;100.00;100508.91;4945378;29;20027;-96
2023/02/25 00:35:55;;;;;;;6.30;2.35;;;;;;;0.73;100.00;100502.09;4939047;29;20086;-96
2023/02/25 00:39:12;;;;;;;;;;;;;;;;;;;;;
2023/02/25 00:42:52;;;;;;;;;;;;;;;;;;;;;
2023/02/25 00:46:10;;;;;;;;;;;;;;;;;;;;;
2023/02/25 00:49:09;;;;;;;10.50;2.08;;;;;;;0.88;100.00;100511.16;4911409;29;20118;-96
2023/02/25 03:17:05;;;;;;;6.53;2.05;;;;;;;0.18;100.00;100573.97;5278430;23;20047;-96
2023/02/25 03:19:45;;;;;;;6.93;2.47;;;;;;;0.19;100.00;100571.38;4935674;29;20035;-95
2023/02/25 03:22:30;;;;;;;6.68;2.20;;;;;;;-0.11;100.00;100547.25;4934658;29;20094;-96
2023/02/25 03:25:31;;;;;;;9.32;2.53;;;;;;;0.02;100.00;100577.53;4931698;28;20078;-96
2023/02/25 03:28:22;;;;;;;5.05;2.50;;;;;;;-0.50;100.00;100529.06;4935410;29;20042;-96
2023/02/25 03:31:49;;;;;;;5.10;2.28;;;;;;;-0.58;100.00;100535.09;4951364;29;20099;-96
2023/02/25 03:34:36;;;;;;;9.13;2.50;;;;;;;-0.34;100.00;100575.41;4853675;29;20109;-96
2023/02/25 03:37:20;;;;;;;9.98;2.00;;;;;;;-0.76;100.00;100531.03;4882998;29;20629;-96
2023/02/25 03:40:17;;;;;;;6.88;2.10;;;;;;;-0.30;100.00;100578.75;4928665;29;20040;-96
2023/02/25 03:43:19;;;;;;;;;;;;;;;;;;;;;
2023/02/25 03:46:20;;;;;;;7.65;1.90;;;;;;;-0.57;100.00;100572.25;4934273;29;20115;-96
2023/02/25 03:52:28;;;;;;;3.45;1.77;;;;;;;-0.74;100.00;100590.97;4938011;29;20035;-95
2023/02/25 03:58:17;;;;;;;5.95;2.00;;;;;;;-0.77;100.00;100570.75;4929240;29;20027;-96
2023/02/25 04:01:03;;;;;;;6.05;2.80;;;;;;;-0.57;100.00;100583.22;4948950;29;20039;-96
2023/02/25 04:07:02;;;;;;;5.43;1.40;;;;;;;-0.53;100.00;100541.78;4926444;29;20056;-96
2023/02/25 04:09:48;;;;;;;8.90;1.80;;;;;;;-0.71;100.00;100544.50;4931069;29;20039;-96
2023/02/25 04:12:27;;;;;;;;;;;;;;;;;;;;;
2023/02/25 04:15:11;;;;;;;6.25;2.38;;;;;;;-0.88;100.00;100555.66;4931499;29;20122;-96
2023/02/25 04:17:55;;;;;;;;;;;;;;;;;;;;;
2023/02/25 04:21:07;;;;;;;;;;;;;;;;;;;;;
2023/02/25 04:23:35;;;;;;;14.20;2.40;;;;;;;-0.42;100.00;100599.97;4933734;29;20833;-96
2023/02/25 04:26:16;;;;;;;;;;;;;;;;;;;;;
2023/02/25 04:28:55;;;;;;;12.45;2.60;;;;;;;-0.73;100.00;100576.59;4936037;29;20503;-95
2023/02/25 04:31:29;;;;;;;5.13;1.67;;;;;;;-0.80;100.00;100575.84;4932254;29;20032;-95
2023/02/25 04:34:09;;;;;;;8.88;1.83;;;;;;;-0.37;100.00;100610.09;4934084;29;20059;-96
2023/02/25 04:37:15;;;;;;;8.90;1.98;;;;;;;-0.50;100.00;100568.81;4931854;29;20036;-96
2023/02/25 04:39:46;;;;;;;6.75;1.83;;;;;;;-0.51;100.00;100570.50;4932947;29;20043;-96
2023/02/25 04:42:14;;;;;;;5.60;1.65;;;;;;;-0.34;100.00;100610.06;4933901;29;20054;-96
2023/02/25 04:44:49;;;;;;;5.93;2.00;;;;;;;-0.38;100.00;100570.38;4933160;29;20040;-96
2023/02/25 04:47:21;;;;;;;10.80;2.17;;;;;;;-0.27;100.00;100587.16;4933808;29;20040;-96
2023/02/25 04:50:00;;;;;;;10.20;2.70;;;;;;;-0.27;100.00;100571.97;4936389;29;20461;-96
2023/02/25 04:52:44;;;;;;;4.57;1.70;;;;;;;-0.06;100.00;100591.16;4944079;28;20338;-96
2023/02/25 04:55:20;;;;;;;13.95;2.35;;;;;;;-0.44;100.00;100578.88;4941930;29;20439;-96
2023/02/25 04:58:06;;;;;;;6.03;2.35;;;;;;;-0.49;100.00;100576.41;4942778;29;20023;-96
2023/02/25 05:01:20;;;;;;;13.93;1.80;;;;;;;-0.28;100.00;100579.56;4945954;29;20458;-96
2023/02/25 05:09:36;;;;;;;10.73;2.17;;;;;;;0.06;100.00;100602.03;4965224;28;20071;-96
2023/02/25 05:12:13;;;;;;;7.97;2.35;;;;;;;0.32;100.00;100614.41;4956684;28;20043;-96
2023/02/25 05:15:02;;;;;;;7.45;2.30;;;;;;;0.35;100.00;100601.69;4957832;28;20054;-96
2023/02/25 05:28:17;;;;;;;6.97;1.88;;;;;;;0.64;100.00;100586.06;4924768;28;20505;-96
2023/02/25 05:33:51;;;;;;;;;;;;;;;;;;;;;
2023/02/25 05:36:48;;;;;;;12.43;2.10;;;;;;;0.69;100.00;100576.66;4956132;29;20042;-96
2023/02/25 05:40:00;;;;;;;;;;;;;;;;;;;;;
2023/02/25 05:43:03;;;;;;;;;;;;;;;;;;;;;
2023/02/25 05:49:25;;;;;;;;;;;;;;;;;;;;;
2023/02/25 05:55:23;;;;;;;13.75;2.22;;;;;;;0.69;100.00;100634.25;4909428;29;20028;-96
2023/02/25 05:58:03;;;;;;;4.35;1.70;;;;;;;0.53;100.00;100631.06;4947857;29;20043;-96
2023/02/25 06:01:33;;;;;;;;;;;;;;;;;;;;;
2023/02/25 06:08:04;;;;;;;5.75;1.75;;;;;;;0.32;100.00;100592.41;4916236;29;20047;-96
2023/02/25 06:21:06;;;;;;;8.93;2.15;;;;;;;0.22;100.00;100598.47;4976732;28;20039;-96
2023/02/25 06:23:44;;;;;;;7.43;2.90;;;;;;;0.32;100.00;100587.31;4961462;28;20031;-96
2023/02/25 06:26:18;;;;;;;7.38;1.85;;;;;;;0.36;100.00;100588.94;4963526;28;20102;-96
2023/02/25 06:29:28;;;;;;;;;;;;;;;;;;;;;
2023/02/25 06:32:00;;;;;;;10.73;1.77;;;;;;;0.66;100.00;100604.66;4947836;29;20127;-96
2023/02/25 06:34:33;;;;;;;10.63;2.33;;;;;;;0.80;100.00;100609.50;4963361;28;20073;-96
2023/02/25 06:37:12;;;;;;;10.38;2.95;;;;;;;0.75;100.00;100591.78;4961277;28;20413;-96
2023/02/25 06:40:11;;;;;;;6.18;1.80;;;;;;;1.10;100.00;100648.91;4964142;28;20035;-96
2023/02/25 06:42:39;;;;;;;8.20;2.20;;;;;;;1.08;100.00;100640.47;4954498;28;20032;-96
2023/02/25 06:45:25;;;;;;;14.32;2.80;;;;;;;0.68;100.00;100609.69;4963475;28;20028;-96
2023/02/25 06:47:53;;;;;;;7.70;1.90;;;;;;;0.71;100.00;100607.09;4945992;29;20043;-96
2023/02/25 06:50:22;;;;;;;8.10;2.08;;;;;;;0.73;100.00;100634.19;4962923;28;20035;-96
2023/02/25 06:52:51;;;;;;;5.80;1.60;;;;;;;0.62;100.00;100620.78;4957825;28;20054;-96
2023/02/25 06:55:46;;;;;;;11.27;3.05;;;;;;;0.77;100.00;100625.66;4963824;28;20031;-96
2023/02/25 07:06:14;;;;;;;7.82;2.03;;;;;;;1.04;100.00;100614.22;5004875;23;20069;-96
2023/02/25 07:09:06;;;;;;;6.43;1.77;;;;;;;1.49;100.00;100661.84;4962675;29;20043;-96
2023/02/25 07:11:57;;;;;;;;;;;;;;;1.35;100.00;100666.31;4965359;28;20031;-96
2023/02/25 07:14:44;;;;;;;12.20;2.28;;;;;;;1.24;100.00;100667.34;4970480;28;19930;-96
2023/02/25 07:17:18;;;;;;;6.78;1.40;;;;;;;0.97;100.00;100627.06;4966771;29;20047;-96
2023/02/25 07:19:47;;;;;;;5.90;1.35;;;;;;;1.25;100.00;100663.06;4955963;29;20061;-96
2023/02/25 07:22:24;;;;;;;17.30;3.05;;;;;;;1.00;99.45;100637.16;4969700;28;20035;-96
2023/02/25 07:24:59;;;;;;;7.03;2.05;;;;;;;0.81;100.00;100650.16;4953746;28;20099;-96
2023/02/25 07:27:32;;;;;;;9.15;2.08;;;;;;;1.04;100.00;100687.09;4948637;28;20133;-96
2023/02/25 07:30:01;;;;;;;8.68;1.80;;;;;;;0.94;100.00;100652.53;4956067;28;20030;-96
2023/02/25 07:32:32;;;;;;;12.05;2.30;;;;;;;1.00;100.00;100658.38;4970889;28;20089;-95
2023/02/25 07:35:01;;;;;;;9.18;2.67;;;;;;;1.01;100.00;100649.88;4955737;28;20038;-96
2023/02/25 07:37:29;;;;;;;9.68;1.80;;;;;;;1.03;97.27;100652.41;4950686;28;20027;-96
2023/02/25 07:39:58;;;;;;;8.98;2.08;;;;;;;0.94;98.16;100648.28;4955170;29;20168;-96
2023/02/25 07:42:30;;;;;;;15.30;2.60;;;;;;;0.74;98.65;100648.56;4951015;28;20063;-96
2023/02/25 07:44:58;;;;;;;;;;;;;;;1.24;96.24;100695.31;4951451;28;20036;-95
2023/02/25 07:47:26;;;;;;;10.77;1.60;;;;;;;1.03;97.95;100682.91;4948080;28;19914;-96
2023/02/25 07:50:08;;;;;;;8.15;1.63;;;;;;;0.92;98.32;100666.94;4962065;28;20035;-96
2023/02/25 07:52:37;;;;;;;;;;;;;;;1.21;98.01;100702.94;4960158;28;20035;-96
2023/02/25 07:55:06;;;;;;;14.25;1.90;;;;;;;1.02;97.91;100663.41;4952889;28;19922;-96
2023/02/25 07:57:40;;;;;;;10.93;2.25;;;;;;;1.11;96.51;100672.63;4948838;28;20035;-96
2023/02/25 08:00:10;;;;;;;11.23;1.80;;;;;;;1.33;94.18;100671.41;4963944;28;20027;-96
2023/02/25 08:02:39;;;;;;;9.45;1.98;;;;;;;1.69;91.28;100672.53;4955422;28;20023;-96
2023/02/25 08:05:11;;;;;;;6.90;1.95;;;;;;;2.19;89.90;100708.13;4954769;28;20040;-96
2023/02/25 08:10:28;;;;;;;7.78;1.50;;;;;;;2.60;84.63;100680.16;4954874;28;20043;-96
2023/02/25 08:12:54;;;;;;;8.68;1.63;;;;;;;2.66;83.41;100668.16;4953060;28;20035;-96
2023/02/25 08:15:28;;;;;;;13.18;2.50;;;;;;;2.99;82.89;100702.25;4957394;28;20031;-95
2023/02/25 08:17:54;;;;;;;10.05;1.67;;;;;;;3.21;82.77;100728.13;4961984;28;20027;-96
2023/02/25 08:24:08;;;;;;;16.40;2.10;;;;;;;3.08;82.17;100677.44;4969651;28;20038;-96
2023/02/25 08:26:34;;;;;;;8.25;1.73;;;;;;;3.33;80.67;100704.03;4947997;28;20048;-96
2023/02/25 08:29:00;;;;;;;8.82;1.85;;;;;;;3.80;79.61;100730.16;4953014;28;20023;-96
2023/02/25 08:31:26;;;;;;;12.27;2.00;;;;;;;4.19;78.05;100706.16;4955913;28;20114;-96
2023/02/25 08:36:59;;;;;;;12.60;1.80;;;;;;;4.83;73.85;100685.59;5401752;23;20571;-96
2023/02/25 08:39:25;;;;;;;9.10;2.10;;;;;;;5.11;71.50;100673.66;4952045;28;20042;-96
2023/02/25 08:41:51;;;;;;;16.52;2.35;;;;;;;5.08;71.44;100694.22;4953948;28;20026;-95
2023/02/25 10:00:18;;;;;;;10.50;2.30;;;;;;;9.44;53.13;100722.56;4951320;29;20118;-96
2023/02/25 10:03:10;;;;;;;14.50;2.77;;;;;;;9.47;52.98;100726.75;4954607;28;20043;-96
2023/02/25 10:06:23;;;;;;;;;;;;;;;;;;;;;
2023/02/25 10:08:44;;;;;;;13.60;2.35;;;;;;;9.74;53.52;100774.34;4926047;29;20360;-95
2023/02/25 10:11:29;;;;;;;9.60;1.58;;;;;;;8.81;54.34;100753.81;4935041;29;20032;-96
2023/02/25 10:14:35;;;;;;;15.10;2.53;;;;;;;9.37;54.23;100780.44;4930806;29;20035;-96
2023/02/25 10:17:21;;;;;;;11.50;2.20;;;;;;;9.74;53.95;100789.81;4931815;29;20758;-95
2023/02/25 10:20:17;;;;;;;13.02;2.13;;;;;;;9.48;53.00;100795.38;4933959;29;20040;-95
2023/02/25 10:23:03;;;;;;;12.55;1.60;;;;;;;9.59;53.65;100808.59;4945775;29;20031;-93
2023/02/25 10:25:33;;;;;;;15.27;2.63;;;;;;;9.38;53.36;100794.97;4950142;29;20036;-94
2023/02/25 10:28:02;;;;;;;9.63;1.90;;;;;;;9.52;53.60;100768.56;4935196;29;20039;-95
2023/02/25 10:30:47;;;;;;;9.15;1.83;;;;;;;9.75;53.24;100777.75;4934485;29;20028;-95
2023/02/25 10:33:26;;;;;;;10.75;1.77;;;;;;;9.81;53.09;100759.44;4936089;29;20027;-96
2023/02/25 10:36:17;;;;;;;13.05;3.38;;;;;;;8.54;54.99;100789.31;4950317;28;20028;-96
2023/02/25 10:38:49;;;;;;;10.65;2.25;;;;;;;8.94;53.80;100775.50;4927340;29;20490;-96
2023/02/25 10:41:17;;;;;;;8.27;1.67;;;;;;;9.41;54.51;100767.34;4951586;29;20552;-95
2023/02/25 10:43:44;;;;;;;11.70;2.10;;;;;;;9.66;54.04;100794.53;4936372;29;21631;-93
2023/02/25 10:46:14;;;;;;;15.20;1.75;;;;;;;9.92;52.92;100785.50;4934803;29;20498;-95
2023/02/25 10:48:56;;;;;;;13.02;1.83;;;;;;;9.55;52.42;100760.69;4937108;29;20159;-95
2023/02/25 10:51:21;;;;;;;;;;;;;;;9.34;53.53;100799.44;4936946;29;20451;-95
2023/02/25 10:53:56;;;;;;;10.45;1.70;;;;;;;9.35;53.46;100811.41;4951922;28;19950;-96
2023/02/25 10:56:35;;;;;;;10.70;2.05;;;;;;;8.78;55.55;100790.00;4939014;29;20490;-95
2023/02/25 10:59:07;;;;;;;7.78;2.00;;;;;;;9.13;54.73;100792.72;4944887;29;20035;-95
2023/02/25 11:09:35;;;;;;;15.55;2.90;;;;;;;9.09;54.99;100789.41;4954693;29;20039;-96
2023/02/25 11:12:07;;;;;;;14.60;2.30;;;;;;;8.87;55.85;100789.56;4962919;28;20042;-96
2023/02/25 11:14:37;;;;;;;10.82;2.13;;;;;;;8.33;57.52;100747.31;4949334;28;20028;-95
2023/02/25 11:17:29;;;;;;;;;;;;;;;;;;;;;
2023/02/25 11:20:35;;;;;;;13.25;2.08;;;;;;;8.35;57.87;100779.78;4935395;29;20368;-96
2023/02/25 11:22:58;;;;;;;11.65;2.00;;;;;;;9.13;57.18;100787.56;4930079;29;20114;-95
2023/02/25 11:25:42;;;;;;;9.85;2.40;;;;;;;8.87;56.13;100789.56;4931017;29;20131;-95
2023/02/25 11:28:33;;;;;;;11.75;2.20;;;;;;;8.61;56.35;100784.72;4928854;29;20059;-96
2023/02/25 11:31:39;;;;;;;11.48;1.73;;;;;;;8.09;55.79;100760.31;4947071;28;20031;-95
2023/02/25 11:43:16;;;;;;;11.73;1.48;;;;;;;7.86;58.87;100793.84;5093430;23;20047;-96
2023/02/25 11:46:00;;;;;;;7.38;2.33;;;;;;;7.53;58.78;100786.56;4926664;29;20475;-96
2023/02/25 11:48:40;;;;;;;9.25;2.10;;;;;;;7.74;58.54;100754.06;4947055;29;20046;-96
2023/02/25 11:51:59;;;;;;;11.23;1.90;;;;;;;8.42;57.45;100752.09;4935620;29;20179;-96
2023/02/25 11:54:37;;;;;;;12.20;2.15;;;;;;;8.94;55.88;100744.63;4944882;28;20039;-95
2023/02/25 11:57:35;;;;;;;14.77;2.28;;;;;;;8.65;55.95;100733.06;4933667;29;20051;-96
2023/02/25 12:00:24;;;;;;;10.35;2.40;;;;;;;8.98;55.79;100782.19;4930350;29;20028;-96
2023/02/25 12:03:04;;;;;;;20.15;3.63;;;;;;;8.89;55.58;100772.31;4933388;29;20027;-96
2023/02/25 12:05:42;;;;;;;14.93;4.78;;;;;;;9.43;54.35;100778.38;4951492;28;20164;-96
2023/02/25 12:11:41;;;;;;;13.82;2.30;;;;;;;8.86;53.32;100772.47;4936223;29;20040;-94
2023/02/25 12:14:22;;;;;;;12.07;2.22;;;;;;;9.38;53.27;100769.22;4926623;29;20123;-96
2023/02/25 12:17:12;;;;;;;12.27;2.25;;;;;;;9.74;53.10;100760.63;4924637;29;20589;-96
2023/02/25 12:19:41;;;;;;;6.93;1.80;;;;;;;8.71;53.55;100757.72;4946744;29;20028;-96
2023/02/25 12:22:41;;;;;;;13.77;2.50;;;;;;;8.87;53.63;100763.00;4927501;29;20042;-96
2023/02/25 12:25:35;;;;;;;10.02;2.75;;;;;;;7.83;55.96;100763.97;4930539;29;20132;-95
2023/02/25 12:28:18;;;;;;;7.47;1.92;;;;;;;8.12;56.71;100757.63;4949343;28;20036;-96
2023/02/25 12:34:38;;;;;;;6.18;1.88;;;;;;;7.97;56.83;100747.97;4982311;28;20058;-96
2023/02/25 12:37:32;;;;;;;13.70;2.55;;;;;;;7.63;56.25;100772.50;4955134;28;20038;-96
2023/02/25 12:40:38;;;;;;;11.80;2.15;;;;;;;8.22;55.46;100728.94;4954603;28;20027;-96
2023/02/25 12:43:30;;;;;;;13.35;2.38;;;;;;;8.22;55.93;100741.78;4940560;29;20039;-96
2023/02/25 12:46:33;;;;;;;16.83;2.60;;;;;;;8.48;54.22;100756.13;4931363;29;20474;-96
2023/02/25 12:49:20;;;;;;;11.20;2.13;;;;;;;9.06;54.78;100747.53;4913816;29;20499;-96
2023/02/25 12:52:14;;;;;;;;;;;;;;;;;;;;;
2023/02/25 12:55:02;;;;;;;9.82;2.33;;;;;;;8.36;55.12;100752.31;4938340;28;20027;-96
2023/02/25 12:57:49;;;;;;;9.98;2.38;;;;;;;8.18;56.18;100745.41;4932168;29;20040;-95
2023/02/25 13:00:46;;;;;;;12.57;2.38;;;;;;;8.09;55.43;100744.88;4950336;29;20031;-95
2023/02/25 13:03:22;;;;;;;12.85;2.47;;;;;;;7.86;54.87;100737.31;4947039;28;20024;-96
2023/02/25 13:06:15;;;;;;;10.57;2.30;;;;;;;8.51;55.47;100749.13;4931300;29;20031;-96
2023/02/25 13:09:06;;;;;;;10.25;1.98;;;;;;;8.45;52.41;100715.13;4928169;29;20047;-96
2023/02/25 13:11:46;;;;;;;10.87;1.90;;;;;;;8.11;53.72;100727.66;4936257;29;20064;-96
2023/02/25 13:14:46;;;;;;;8.90;2.05;;;;;;;8.94;51.39;100738.63;4934872;29;20329;-95
2023/02/25 13:17:24;;;;;;;12.52;2.72;;;;;;;8.49;51.52;100716.66;4935161;29;20047;-96
2023/02/25 13:20:19;;;;;;;13.70;2.28;;;;;;;8.68;53.02;100740.66;4950921;28;20032;-95
2023/02/25 13:23:10;;;;;;;12.68;1.88;;;;;;;7.62;53.96;100711.72;4933857;29;20053;-96
2023/02/25 13:26:19;;;;;;;12.10;1.88;;;;;;;6.96;55.18;100703.22;4940391;29;20027;-96
2023/02/25 13:29:19;;;;;;;10.52;2.03;;;;;;;7.03;56.41;100740.59;4935778;29;20186;-96
2023/02/25 13:32:20;;;;;;;9.25;2.85;;;;;;;6.88;56.58;100741.13;4938924;29;20042;-96
2023/02/25 13:35:01;;;;;;;10.88;1.77;;;;;;;6.53;58.81;100715.06;4938899;29;20043;-95
2023/02/25 13:37:50;;;;;;;18.13;2.40;;;;;;;6.06;59.35;100722.72;4935730;29;20031;-95
2023/02/25 13:40:24;;;;;;;12.65;2.08;;;;;;;6.14;60.23;100744.59;4929667;29;20040;-95
2023/02/25 13:43:04;;;;;;;16.23;2.10;;;;;;;6.10;61.93;100752.47;4946207;29;20032;-96
2023/02/25 13:45:52;;;;;;;12.63;1.95;;;;;;;6.07;63.28;100747.44;4935885;29;20119;-96
2023/02/25 13:48:29;;;;;;;8.95;2.33;;;;;;;6.44;65.03;100741.88;4949946;28;20046;-96
2023/02/25 13:51:29;;;;;;;11.40;1.95;;;;;;;6.74;62.61;100737.38;4948157;29;20118;-96
2023/02/25 13:54:18;;;;;;;10.63;1.85;;;;;;;7.28;61.53;100725.91;4933460;29;20047;-94
2023/02/25 13:57:03;;;;;;;12.63;2.20;;;;;;;7.60;58.97;100739.19;4947538;28;20124;-95
2023/02/25 13:59:47;;;;;;;8.40;2.63;;;;;;;7.78;59.37;100734.19;4931777;29;20067;-95
2023/02/25 14:02:15;;;;;;;13.15;2.67;;;;;;;7.97;57.46;100727.41;4929784;29;20386;-95
2023/02/25 14:05:18;;;;;;;10.82;2.30;;;;;;;8.20;57.34;100725.63;4926680;29;20035;-95
2023/02/25 14:08:12;;;;;;;11.07;2.20;;;;;;;7.91;56.06;100732.81;4927407;29;20187;-96
2023/02/25 14:10:49;;;;;;;5.45;1.50;;;;;;;8.36;57.18;100726.59;4944496;28;20023;-95
2023/02/25 14:13:57;;;;;;;11.98;2.85;;;;;;;8.13;54.82;100705.28;4930335;29;20549;-96
2023/02/25 14:16:48;;;;;;;12.73;1.85;;;;;;;8.28;53.06;100721.78;4928748;29;20626;-95
2023/02/25 14:19:45;;;;;;;11.07;2.85;;;;;;;8.01;54.25;100746.94;4928096;29;20042;-95
2023/02/25 14:22:28;;;;;;;19.92;4.50;;;;;;;7.61;54.40;100745.19;4929703;29;20039;-96
2023/02/25 14:25:24;;;;;;;13.05;3.40;;;;;;;7.34;54.71;100737.69;4929188;29;20091;-96
2023/02/25 14:28:10;;;;;;;7.60;1.98;;;;;;;7.65;54.67;100727.00;4939312;28;20402;-96
2023/02/25 14:30:45;;;;;;;11.50;1.95;;;;;;;7.58;54.83;100737.59;4941986;28;20107;-95
2023/02/25 14:33:36;;;;;;;8.95;1.85;;;;;;;7.71;55.75;100738.78;4929268;29;20032;-95
2023/02/25 14:36:06;;;;;;;9.63;1.55;;;;;;;7.91;55.08;100751.63;4929029;29;20042;-96
2023/02/25 14:39:08;;;;;;;10.00;1.75;;;;;;;7.67;54.65;100748.31;4941766;28;20091;-96
2023/02/25 14:41:56;;;;;;;9.23;1.98;;;;;;;7.46;55.36;100738.91;4929720;29;20024;-96
2023/02/25 14:44:50;;;;;;;12.25;2.63;;;;;;;7.34;55.75;100737.69;4923725;29;20082;-95
2023/02/25 14:47:33;;;;;;;10.75;2.60;;;;;;;7.29;55.81;100699.34;4929235;29;20553;-96
2023/02/25 14:50:03;;;;;;;7.75;1.75;;;;;;;7.69;56.26;100743.97;4928556;29;20028;-96
2023/02/25 14:52:58;;;;;;;7.60;1.83;;;;;;;7.63;57.11;100722.81;4925257;29;20044;-96
2023/02/25 14:55:43;;;;;;;11.10;1.92;;;;;;;7.61;58.12;100743.44;4923091;29;20044;-96
2023/02/25 14:58:33;;;;;;;11.05;1.98;;;;;;;7.32;59.47;100746.34;4927501;29;20020;-96
2023/02/25 15:01:10;;;;;;;9.88;1.73;;;;;;;7.37;58.54;100750.41;4945706;29;20494;-96
2023/02/25 15:03:36;;;;;;;9.25;1.67;;;;;;;7.21;59.56;100745.00;4928232;29;20039;-95
2023/02/25 15:06:33;;;;;;;10.35;1.98;;;;;;;7.16;59.33;100754.63;4930485;29;20031;-96
2023/02/25 15:09:12;;;;;;;12.68;1.92;;;;;;;7.34;59.62;100762.50;4931178;29;20394;-96
2023/02/25 15:11:50;;;;;;;14.40;1.50;;;;;;;7.39;58.94;100752.88;4931236;29;20024;-95
2023/02/25 15:14:46;;;;;;;13.25;2.13;;;;;;;7.63;58.58;100741.66;4936504;29;20027;-96
2023/02/25 15:17:55;;;;;;;11.82;2.20;;;;;;;7.49;58.91;100759.34;4935861;29;20438;-96
2023/02/25 15:28:28;;;;;;;10.30;2.00;;;;;;;7.06;58.98;100772.09;5919604;23;20030;-96
2023/02/25 15:30:59;;;;;;;9.05;1.63;;;;;;;6.49;60.14;100763.06;4950614;29;20042;-96
2023/02/25 15:33:39;;;;;;;13.35;2.20;;;;;;;6.42;61.61;100761.63;4968143;28;20057;-96
2023/02/25 15:36:13;;;;;;;9.80;1.60;;;;;;;6.36;62.67;100762.63;4944869;28;20028;-96
2023/02/25 15:38:58;;;;;;;12.20;1.77;;;;;;;6.18;62.07;100724.84;4954191;29;20031;-96
2023/02/25 15:44:47;;;;;;;7.15;2.15;;;;;;;5.87;62.84;100725.84;4914323;29;20508;-96
2023/02/25 15:47:28;;;;;;;11.77;2.40;;;;;;;6.16;60.97;100770.19;4932050;29;20040;-96
2023/02/25 15:49:56;;;;;;;13.23;2.45;;;;;;;5.97;59.78;100727.25;4933229;29;20027;-96
2023/02/25 16:02:46;;;;;;;9.07;2.03;;;;;;;5.52;59.42;100750.88;5334413;23;20051;-96
2023/02/25 16:09:09;;;;;;;;;;;;;;;;;;;;;
2023/02/25 16:11:52;;;;;;;9.05;1.58;;;;;;;5.47;60.05;100752.75;4945440;28;20041;-96
2023/02/25 16:29:15;;;;;;;;;;;;;;;;;;;;;
2023/02/25 16:32:55;;;;;;;;;;;;;;;;;;;;;
2023/02/25 16:35:44;;;;;;;5.00;0.98;;;;;;;6.53;57.66;100797.13;4957250;29;20138;-96
2023/02/25 16:39:22;;;;;;;;;;;;;;;;;;;;;
2023/02/25 16:41:54;;;;;;;6.18;1.65;;;;;;;6.33;57.70;100792.69;4944775;23;20165;-96
2023/02/25 16:44:45;;;;;;;8.57;1.80;;;;;;;6.29;58.53;100822.72;4965670;28;20050;-96
2023/02/25 16:47:31;;;;;;;6.22;1.10;;;;;;;6.03;58.54;100784.31;4956046;29;20118;-96
2023/02/25 16:50:14;;;;;;;7.38;1.30;;;;;;;5.89;58.49;100793.25;4951814;28;20031;-96
2023/02/25 16:53:51;;;;;;;;;;;;;;;;;;;;;
2023/02/25 16:59:50;;;;;;;;;;;;;;;5.71;60.12;100834.81;4952060;28;20043;-96
2023/02/25 17:37:15;;;;;;;9.95;1.88;;;;;;;4.72;64.63;100883.66;5384711;23;20047;-96
2023/02/25 17:40:20;;;;;;;10.70;1.60;;;;;;;4.90;64.63;100895.13;4943812;29;20202;-96
2023/02/25 17:43:15;;;;;;;6.28;1.45;;;;;;;4.82;64.88;100906.44;4942305;29;20039;-96
2023/02/25 17:49:57;;;;;;;;;;;;;;;;;;;;;
2023/02/25 17:52:29;;;;;;;9.52;1.73;;;;;;;4.42;65.74;100856.34;4937550;29;20046;-96
2023/02/25 17:55:22;;;;;;;12.80;1.63;;;;;;;4.55;66.35;100921.59;4922197;29;20029;-96
2023/02/25 17:58:37;;;;;;;5.63;1.33;;;;;;;4.53;67.56;100925.91;4942418;29;20038;-96
2023/02/25 18:01:04;;;;;;;7.35;1.40;;;;;;;4.02;68.81;100882.81;4939446;29;20036;-96
2023/02/25 18:03:53;;;;;;;7.85;1.83;;;;;;;3.97;68.37;100902.53;4932247;29;20313;-96
2023/02/25 18:06:49;;;;;;;;;;;;;;;;;;;;;
2023/02/25 18:45:44;;;;;;;10.23;2.20;;;;;;;3.04;77.82;100921.44;5518892;23;20063;-96
2023/02/25 18:48:17;;;;;;;10.68;3.92;;;;;;;3.13;77.47;100915.34;4969553;28;20143;-96
2023/02/25 18:50:44;;;;;;;4.70;1.48;;;;;;;3.01;78.49;100941.91;4978917;28;20027;-96
2023/02/25 19:02:12;;;;;;;11.88;2.35;;;;;;;2.92;78.62;100945.47;5141908;23;20055;-96
2023/02/25 19:04:44;;;;;;;12.35;1.30;;;;;;;3.08;78.47;100947.75;4953959;29;20032;-96
2023/02/25 19:15:20;;;;;;;10.18;1.67;;;;;;;3.30;78.00;100949.03;5107004;23;20074;-96
2023/02/25 19:17:49;;;;;;;14.25;2.05;;;;;;;3.36;78.47;100999.91;4961808;29;20035;-96
2023/02/25 19:20:21;;;;;;;9.10;1.70;;;;;;;3.24;78.71;100968.69;5340601;23;20409;-96
2023/02/25 19:39:47;;;;;;;10.05;2.97;;;;;;;2.98;82.96;101021.84;4976715;28;20037;-96
2023/02/25 19:46:35;;;;;;;13.45;2.88;;;;;;;2.25;85.30;100988.16;4937050;29;20036;-96
2023/02/25 20:02:02;;;;;;;10.13;3.25;;;;;;;1.88;90.59;101015.81;5746929;23;20018;-95
2023/02/25 20:04:41;;;;;;;10.55;2.78;;;;;;;2.04;90.39;101024.09;4959851;28;20051;-96
2023/02/25 20:07:17;;;;;;;17.95;4.70;;;;;;;2.01;90.86;101022.44;4963859;28;20098;-96
